Time;durP1;ratioP1;P1;durP2;ratioP2;P2;SDS_P1;SDS_P2;PMS_P1;PMS_P2;Temp;Humidity;BMP_temperature;BMP_pressure;BME280_temperature;BME280_humidity;BME280_pressure;Samples;Min_cycle;Max_cycle;Signal;HPM_P1;HPM_P2
2022/07/29 00:01:32;;;;;;;11.00;7.20;;;20.70;99.90;;;;;;5051470;28;20407;-52
2022/07/29 00:03:57;;;;;;;12.50;7.93;;;20.60;1.00;;;;;;5051051;28;20517;-52
2022/07/29 00:06:23;;;;;;;11.18;7.45;;;20.50;1.00;;;;;;5052393;28;20413;-52
2022/07/29 00:08:48;;;;;;;13.88;7.90;;;20.40;1.00;;;;;;5051403;28;20397;-53
2022/07/29 00:11:14;;;;;;;11.07;7.13;;;20.50;1.00;;;;;;5051741;28;20435;-54
2022/07/29 00:13:42;;;;;;;10.13;6.90;;;20.50;1.00;;;;;;5051936;28;20393;-62
2022/07/29 00:16:08;;;;;;;12.50;7.60;;;20.50;1.00;;;;;;5034209;28;20397;-52
2022/07/29 00:18:33;;;;;;;12.30;7.70;;;20.40;1.00;;;;;;5052094;28;20390;-52
2022/07/29 00:20:59;;;;;;;12.63;8.40;;;20.40;1.00;;;;;;5051805;28;20378;-52
2022/07/29 00:23:25;;;;;;;12.98;8.00;;;20.40;1.00;;;;;;5052354;28;20393;-52
2022/07/29 00:26:00;;;;;;;11.87;7.67;;;20.30;1.00;;;;;;5051180;28;20793;-52
2022/07/29 00:28:31;;;;;;;12.02;7.75;;;20.20;1.00;;;;;;5052028;28;20401;-52
2022/07/29 00:30:59;;;;;;;14.43;9.00;;;20.20;1.00;;;;;;5051591;28;20404;-52
2022/07/29 00:33:42;;;;;;;11.63;7.80;;;20.00;1.00;;;;;;5051160;28;20789;-52
2022/07/29 00:36:24;;;;;;;13.60;9.63;;;20.00;1.00;;;;;;5051926;28;20855;-51
2022/07/29 00:39:00;;;;;;;14.95;9.30;;;19.80;1.00;;;;;;5051345;28;20390;-52
2022/07/29 00:41:51;;;;;;;13.57;9.25;;;19.90;1.00;;;;;;5052174;28;20384;-54
2022/07/29 00:44:16;;;;;;;13.30;7.60;;;19.90;1.00;;;;;;5040185;28;20850;-54
2022/07/29 00:46:45;;;;;;;13.07;8.60;;;19.80;1.00;;;;;;5051113;28;20440;-61
2022/07/29 00:49:10;;;;;;;11.75;8.10;;;19.80;1.00;;;;;;5051512;28;20385;-52
2022/07/29 00:51:37;;;;;;;12.07;8.18;;;19.80;1.00;;;;;;5051574;28;20376;-52
2022/07/29 00:54:07;;;;;;;13.52;8.40;;;19.80;1.00;;;;;;5050540;28;20893;-52
2022/07/29 00:56:36;;;;;;;12.98;8.32;;;19.70;1.00;;;;;;5051793;28;20393;-52
2022/07/29 00:59:02;;;;;;;13.70;8.15;;;19.60;1.00;;;;;;5050206;28;20397;-52
2022/07/29 01:01:44;;;;;;;13.30;8.40;;;19.60;1.00;;;;;;5051051;28;20416;-52
2022/07/29 01:04:15;;;;;;;15.07;8.20;;;19.60;1.00;;;;;;5051201;28;20890;-52
2022/07/29 01:06:48;;;;;;;12.32;7.82;;;19.70;1.00;;;;;;5050541;28;20453;-64
2022/07/29 01:09:17;;;;;;;12.20;8.07;;;19.60;1.00;;;;;;5051057;28;20440;-52
2022/07/29 01:11:45;;;;;;;11.68;7.90;;;19.60;1.00;;;;;;5050201;28;20403;-55
2022/07/29 01:14:15;;;;;;;12.40;8.23;;;19.60;1.00;;;;;;5051131;28;20478;-52
2022/07/29 01:16:57;;;;;;;11.40;7.65;;;19.60;1.00;;;;;;5050879;28;20373;-53
2022/07/29 01:19:47;;;;;;;12.63;8.02;;;19.60;1.00;;;;;;5050785;28;20397;-52
2022/07/29 01:22:16;;;;;;;14.05;8.93;;;19.60;1.00;;;;;;5051168;28;20392;-52
2022/07/29 01:25:18;;;;;;;13.60;8.20;;;19.70;1.00;;;;;;5050408;28;20390;-61
2022/07/29 01:27:54;;;;;;;12.65;8.20;;;19.60;1.00;;;;;;5050241;28;20819;-52
2022/07/29 01:30:24;;;;;;;13.70;8.60;;;19.40;1.00;;;;;;5051466;28;20434;-52
2022/07/29 01:32:54;;;;;;;12.95;8.63;;;19.40;1.00;;;;;;5050470;28;20378;-52
2022/07/29 01:35:28;;;;;;;14.68;9.15;;;19.40;1.00;;;;;;5050599;28;20378;-56
2022/07/29 01:38:16;;;;;;;13.20;8.60;;;19.40;1.00;;;;;;5049937;28;20408;-52
2022/07/29 01:41:09;;;;;;;18.90;9.93;;;19.30;3.30;;;;;;5050193;28;20381;-52
2022/07/29 01:43:55;;;;;;;14.50;9.60;;;19.30;25.20;;;;;;5050330;28;20391;-52
2022/07/29 01:46:34;;;;;;;17.98;10.07;;;19.20;45.50;;;;;;5050415;28;20385;-52
2022/07/29 01:49:11;;;;;;;15.80;10.45;;;19.30;27.00;;;;;;5049217;28;21161;-54
2022/07/29 01:52:11;;;;;;;14.65;10.48;;;19.30;36.40;;;;;;5050447;28;20431;-52
2022/07/29 01:54:52;;;;;;;16.55;10.38;;;19.30;26.60;;;;;;5030477;28;20386;-53
2022/07/29 01:57:25;;;;;;;15.48;10.43;;;19.30;20.60;;;;;;5033272;28;20421;-52
2022/07/29 01:59:53;;;;;;;15.00;10.30;;;19.30;14.60;;;;;;5049102;28;20385;-55
2022/07/29 02:02:21;;;;;;;13.45;9.90;;;19.20;27.60;;;;;;5031991;28;20755;-54
2022/07/29 02:04:52;;;;;;;17.08;10.10;;;19.20;45.00;;;;;;5049255;28;20426;-54
2022/07/29 02:07:24;;;;;;;15.10;9.80;;;19.10;50.00;;;;;;5049581;28;20417;-54
2022/07/29 02:10:03;;;;;;;15.97;10.00;;;19.10;64.60;;;;;;5049148;28;20781;-52
2022/07/29 02:12:32;;;;;;;15.53;10.37;;;19.10;63.60;;;;;;5049105;28;20386;-52
2022/07/29 02:15:14;;;;;;;14.95;9.85;;;19.10;60.90;;;;;;5048573;28;21303;-52
2022/07/29 02:17:53;;;;;;;15.02;10.18;;;19.00;74.50;;;;;;5049585;28;20419;-57
2022/07/29 02:20:22;;;;;;;15.43;9.70;;;19.00;90.30;;;;;;5049667;28;20863;-52
2022/07/29 02:22:54;;;;;;;13.93;9.32;;;19.00;93.60;;;;;;5048903;28;20417;-52
2022/07/29 02:25:27;;;;;;;15.55;10.00;;;19.00;96.90;;;;;;5049359;28;20459;-52
2022/07/29 02:28:00;;;;;;;14.35;9.63;;;19.00;99.90;;;;;;5048465;28;20774;-52
2022/07/29 02:30:28;;;;;;;13.98;9.35;;;19.10;99.90;;;;;;5048547;28;20500;-52
2022/07/29 02:33:00;;;;;;;15.57;9.90;;;19.10;99.90;;;;;;5048524;28;20937;-52
2022/07/29 02:35:31;;;;;;;13.00;8.82;;;19.10;90.20;;;;;;5048939;28;20405;-52
2022/07/29 02:40:48;;;;;;;14.77;9.25;;;19.10;76.60;;;;;;5048890;28;20447;-61
2022/07/29 02:43:19;;;;;;;13.38;9.00;;;19.10;63.60;;;;;;5049828;28;20387;-52
2022/07/29 02:45:57;;;;;;;14.47;9.57;;;19.10;56.10;;;;;;5047961;28;20389;-62
2022/07/29 02:48:49;;;;;;;13.03;9.70;;;19.00;91.40;;;;;;5047701;28;20418;-52
2022/07/29 02:51:40;;;;;;;14.07;9.13;;;19.00;99.90;;;;;;5048745;28;20484;-53
2022/07/29 02:54:11;;;;;;;13.15;9.73;;;19.00;99.90;;;;;;5048735;28;20425;-54
2022/07/29 02:56:40;;;;;;;14.60;9.10;;;19.10;99.90;;;;;;5049447;28;20412;-54
2022/07/29 02:59:19;;;;;;;13.02;8.90;;;19.00;99.90;;;;;;5030741;28;20454;-52
2022/07/29 03:01:46;;;;;;;13.45;9.07;;;19.00;99.90;;;;;;5048350;28;20397;-60
2022/07/29 03:04:18;;;;;;;12.77;8.70;;;19.00;99.90;;;;;;5049406;28;20488;-51
2022/07/29 03:06:51;;;;;;;13.10;9.00;;;19.00;99.90;;;;;;5048508;28;20389;-61
2022/07/29 03:09:28;;;;;;;14.52;9.93;;;19.00;99.90;;;;;;5049576;28;20465;-53
2022/07/29 03:12:00;;;;;;;16.98;10.40;;;19.00;99.90;;;;;;5048108;28;20417;-54
2022/07/29 03:14:40;;;;;;;14.77;10.48;;;19.10;92.80;;;;;;5049231;28;20400;-55
2022/07/29 03:17:21;;;;;;;15.18;9.65;;;19.10;86.00;;;;;;5047721;28;20397;-53
2022/07/29 03:19:49;;;;;;;14.80;9.88;;;19.10;84.00;;;;;;5048428;28;20377;-57
2022/07/29 03:22:19;;;;;;;14.83;9.20;;;19.20;56.10;;;;;;5048951;28;20394;-53
2022/07/29 03:24:44;;;;;;;14.20;9.13;;;19.10;51.40;;;;;;5048797;28;20380;-62
2022/07/29 03:27:10;;;;;;;13.00;9.17;;;19.10;99.90;;;;;;5048191;28;20425;-53
2022/07/29 03:29:38;;;;;;;14.55;10.00;;;19.20;92.00;;;;;;5049237;28;20885;-55
2022/07/29 03:32:05;;;;;;;14.95;10.50;;;19.20;70.80;;;;;;5047870;28;20393;-54
2022/07/29 03:34:34;;;;;;;15.75;10.20;;;19.20;73.40;;;;;;5048201;28;20385;-54
2022/07/29 03:37:09;;;;;;;13.40;9.97;;;19.30;55.90;;;;;;5047988;28;20405;-54
2022/07/29 03:39:41;;;;;;;16.23;9.85;;;19.30;67.00;;;;;;5049129;28;20523;-55
2022/07/29 03:42:10;;;;;;;15.40;9.50;;;19.30;87.90;;;;;;5047023;28;20424;-53
2022/07/29 03:44:36;;;;;;;14.70;9.45;;;19.30;73.10;;;;;;5048897;28;20496;-53
2022/07/29 03:47:08;;;;;;;14.60;9.80;;;19.30;99.90;;;;;;5049752;28;21334;-57
2022/07/29 03:49:36;;;;;;;15.10;9.93;;;19.40;52.90;;;;;;5052704;28;20386;-53
2022/07/29 03:52:02;;;;;;;14.40;9.57;;;19.20;57.90;;;;;;5051355;28;20770;-53
2022/07/29 03:54:33;;;;;;;14.85;9.75;;;19.00;97.90;;;;;;5052517;28;20468;-52
2022/07/29 03:57:13;;;;;;;14.48;10.18;;;19.10;95.80;;;;;;5051186;28;20478;-51
2022/07/29 03:59:47;;;;;;;14.95;10.50;;;19.10;92.00;;;;;;5051684;28;20390;-52
2022/07/29 04:02:15;;;;;;;15.32;10.57;;;19.20;54.60;;;;;;5052136;28;20389;-52
2022/07/29 04:04:41;;;;;;;14.60;10.30;;;19.20;42.60;;;;;;5052253;28;20382;-52
2022/07/29 04:07:06;;;;;;;17.67;10.90;;;19.30;36.60;;;;;;5051128;28;20420;-54
2022/07/29 04:09:35;;;;;;;18.27;11.57;;;19.30;36.50;;;;;;5052334;28;20389;-52
2022/07/29 04:12:01;;;;;;;16.52;10.80;;;19.10;94.10;;;;;;5050876;28;20397;-52
2022/07/29 04:14:26;;;;;;;14.87;10.27;;;19.10;91.00;;;;;;5051895;28;20374;-54
2022/07/29 04:16:52;;;;;;;16.47;10.33;;;19.10;99.90;;;;;;5050640;28;20809;-52
2022/07/29 04:19:18;;;;;;;15.80;10.75;;;19.10;99.90;;;;;;5048690;28;20488;-53
2022/07/29 04:21:45;;;;;;;14.50;10.40;;;19.10;99.90;;;;;;5050789;28;20527;-60
2022/07/29 04:24:10;;;;;;;17.95;10.50;;;19.20;99.90;;;;;;5051341;28;20800;-51
2022/07/29 04:26:36;;;;;;;14.93;9.60;;;19.20;88.60;;;;;;5050969;28;20451;-55
2022/07/29 04:29:04;;;;;;;14.40;10.65;;;19.30;91.30;;;;;;5050471;28;20933;-51
2022/07/29 04:31:29;;;;;;;15.55;10.30;;;19.30;69.00;;;;;;5051483;28;20389;-52
2022/07/29 04:33:55;;;;;;;14.20;10.00;;;19.30;57.50;;;;;;5050557;28;20385;-51
2022/07/29 04:36:20;;;;;;;14.97;9.80;;;19.30;71.10;;;;;;5032595;28;20411;-51
2022/07/29 04:38:46;;;;;;;16.23;10.80;;;19.40;63.30;;;;;;5050921;28;20846;-61
2022/07/29 04:41:11;;;;;;;14.98;9.70;;;19.50;22.00;;;;;;5051526;28;20393;-51
2022/07/29 04:43:37;;;;;;;14.95;10.75;;;19.60;9.30;;;;;;5051651;28;20720;-53
2022/07/29 04:46:06;;;;;;;14.80;11.50;;;19.60;1.00;;;;;;5050677;28;20385;-55
2022/07/29 04:48:34;;;;;;;14.20;10.82;;;19.50;14.70;;;;;;5049595;28;20520;-55
2022/07/29 04:51:08;;;;;;;13.80;10.00;;;19.50;27.20;;;;;;5049753;28;20429;-59
2022/07/29 04:53:33;;;;;;;14.93;9.85;;;19.50;25.60;;;;;;5051325;28;20794;-54
2022/07/29 04:56:02;;;;;;;14.50;10.05;;;19.60;27.00;;;;;;5050536;28;20397;-54
2022/07/29 04:58:28;;;;;;;16.80;9.70;;;19.70;7.70;;;;;;5050730;28;20459;-54
2022/07/29 05:01:12;;;;;;;15.30;10.20;;;19.80;1.00;;;;;;5049810;28;20875;-51
2022/07/29 05:03:38;;;;;;;16.25;10.10;;;19.90;17.60;;;;;;5050788;28;20409;-51
2022/07/29 05:06:03;;;;;;;13.77;9.83;;;20.10;1.00;;;;;;5050117;28;20867;-53
2022/07/29 05:08:29;;;;;;;14.03;8.80;;;20.40;1.00;;;;;;5049919;28;20449;-56
2022/07/29 05:10:55;;;;;;;12.73;8.70;;;21.00;1.00;;;;;;5043439;28;20429;-51
2022/07/29 05:13:20;;;;;;;14.00;8.85;;;21.90;99.90;;;;;;5050465;28;20444;-51
2022/07/29 05:15:46;;;;;;;15.95;9.00;;;22.80;21.20;;;;;;5050240;28;20396;-62
2022/07/29 05:18:14;;;;;;;13.90;8.07;;;23.50;1.00;;;;;;5050727;28;20413;-53
2022/07/29 05:20:43;;;;;;;13.52;8.70;;;23.90;1.00;;;;;;5050352;28;20394;-51
2022/07/29 05:23:12;;;;;;;11.73;7.47;;;24.30;53.70;;;;;;5049903;28;21209;-51
2022/07/29 05:25:38;;;;;;;11.27;7.38;;;24.40;1.00;;;;;;5050538;28;20553;-51
2022/07/29 05:28:04;;;;;;;12.40;7.40;;;25.00;1.00;;;;;;5049730;28;20409;-53
2022/07/29 05:30:29;;;;;;;11.93;7.25;;;25.70;99.90;;;;;;5049784;28;20424;-53
2022/07/29 05:32:55;;;;;;;11.40;6.53;;;26.60;1.00;;;;;;5049827;28;20484;-51
2022/07/29 05:35:21;;;;;;;11.25;6.88;;;27.20;1.00;;;;;;5050340;28;20407;-50
2022/07/29 05:37:46;;;;;;;10.32;5.85;;;27.70;1.00;;;;;;5050186;28;20381;-58
2022/07/29 05:40:12;;;;;;;10.13;7.00;;;28.00;1.00;;;;;;5050115;28;20437;-51
2022/07/29 05:42:38;;;;;;;11.25;6.60;;;27.80;1.00;;;;;;5050565;28;20484;-50
2022/07/29 05:45:04;;;;;;;11.23;6.60;;;28.20;1.00;;;;;;5049035;28;20901;-50
2022/07/29 05:47:30;;;;;;;11.55;6.95;;;28.40;1.00;;;;;;5050277;28;20439;-50
2022/07/29 05:49:56;;;;;;;11.10;6.63;;;27.90;1.00;;;;;;5049480;28;20397;-50
2022/07/29 05:52:21;;;;;;;11.98;6.68;;;27.30;99.90;;;;;;5050339;28;20389;-50
2022/07/29 05:54:47;;;;;;;13.65;7.20;;;26.70;1.00;;;;;;5049501;28;20788;-58
2022/07/29 05:57:22;;;;;;;9.65;6.50;;;26.50;1.00;;;;;;5050312;28;20404;-50
2022/07/29 05:59:49;;;;;;;10.20;6.45;;;27.10;1.00;;;;;;5048744;28;20397;-58
2022/07/29 06:02:15;;;;;;;9.90;6.72;;;27.50;1.00;;;;;;5049403;28;20393;-50
2022/07/29 06:04:41;;;;;;;10.90;6.57;;;27.10;1.00;;;;;;5043694;28;20755;-52
2022/07/29 06:07:07;;;;;;;10.48;6.32;;;27.00;1.00;;;;;;5047613;28;20404;-50
2022/07/29 06:09:33;;;;;;;11.10;6.45;;;27.10;1.00;;;;;;5049151;28;20389;-50
2022/07/29 06:12:20;;;;;;;9.82;6.10;;;27.50;99.90;;;;;;5030971;28;20419;-51
2022/07/29 06:14:48;;;;;;;10.38;5.35;;;27.90;99.90;;;;;;5049425;28;20386;-50
2022/07/29 06:17:16;;;;;;;11.68;6.05;;;28.30;99.90;;;;;;5049158;28;20385;-51
2022/07/29 06:19:44;;;;;;;9.10;5.37;;;28.80;99.90;;;;;;5049564;28;20401;-55
2022/07/29 06:22:10;;;;;;;10.25;5.43;;;28.30;99.90;;;;;;5048701;28;20812;-51
2022/07/29 06:24:37;;;;;;;10.40;5.80;;;28.60;99.90;;;;;;5049532;28;20393;-52
2022/07/29 06:27:03;;;;;;;9.52;5.30;;;29.10;1.00;;;;;;5048638;28;20511;-51
2022/07/29 06:29:30;;;;;;;8.07;4.23;;;29.20;1.00;;;;;;5048828;28;20687;-52
2022/07/29 06:31:56;;;;;;;8.50;3.90;;;28.70;1.00;;;;;;5047535;28;20511;-51
2022/07/29 06:34:24;;;;;;;7.77;3.80;;;28.30;1.00;;;;;;5049584;28;20473;-51
2022/07/29 06:36:50;;;;;;;7.32;3.70;;;27.80;1.00;;;;;;5029648;28;20383;-51
2022/07/29 06:39:15;;;;;;;8.00;3.88;;;27.20;1.00;;;;;;5044968;28;20412;-51
2022/07/29 06:41:48;;;;;;;7.50;3.72;;;27.30;1.00;;;;;;5049906;28;20396;-51
2022/07/29 06:44:14;;;;;;;10.90;4.38;;;27.10;1.00;;;;;;5048964;28;20396;-50
2022/07/29 06:46:39;;;;;;;8.70;3.90;;;27.20;99.90;;;;;;5049589;28;20393;-50
2022/07/29 06:49:06;;;;;;;8.23;4.03;;;27.00;99.90;;;;;;5049218;28;20842;-50
2022/07/29 06:51:32;;;;;;;7.53;3.93;;;26.90;99.90;;;;;;5049087;28;20408;-51
2022/07/29 06:53:58;;;;;;;8.70;4.20;;;27.10;99.90;;;;;;5047202;28;20762;-51
2022/07/29 06:56:24;;;;;;;8.05;3.83;;;26.90;99.90;;;;;;5048536;28;20401;-51
2022/07/29 06:58:52;;;;;;;7.00;3.47;;;27.40;99.90;;;;;;5048382;28;20401;-59
2022/07/29 07:01:18;;;;;;;8.40;3.72;;;29.40;99.90;;;;;;5049211;28;20445;-51
2022/07/29 07:03:49;;;;;;;7.53;3.70;;;30.00;99.90;;;;;;5049003;28;20395;-51
2022/07/29 07:06:15;;;;;;;7.80;4.10;;;31.10;99.90;;;;;;5048834;28;20389;-51
2022/07/29 07:08:44;;;;;;;7.85;3.90;;;31.40;99.90;;;;;;5049023;28;20830;-51
2022/07/29 07:11:10;;;;;;;8.50;4.63;;;31.30;99.90;;;;;;5048083;28;20574;-52
2022/07/29 07:13:35;;;;;;;8.80;4.43;;;31.50;99.90;;;;;;5048969;28;20910;-52
2022/07/29 07:16:07;;;;;;;8.93;4.50;;;32.10;99.90;;;;;;5048359;28;20385;-52
2022/07/29 07:18:35;;;;;;;7.78;4.20;;;32.10;99.90;;;;;;5049295;28;20400;-51
2022/07/29 07:21:04;;;;;;;8.40;4.90;;;32.10;99.90;;;;;;5046326;28;20432;-53
2022/07/29 07:23:30;;;;;;;9.05;4.85;;;32.40;99.90;;;;;;5052075;28;20436;-52
2022/07/29 07:25:56;;;;;;;7.93;5.10;;;32.40;99.90;;;;;;5051316;28;20441;-52
2022/07/29 07:28:24;;;;;;;8.13;5.30;;;32.70;99.90;;;;;;5052176;28;20801;-52
2022/07/29 07:30:50;;;;;;;9.13;5.30;;;32.90;99.90;;;;;;5052519;28;20386;-60
2022/07/29 07:33:16;;;;;;;8.73;5.18;;;33.10;99.90;;;;;;5052449;28;20381;-52
2022/07/29 07:35:42;;;;;;;10.18;5.47;;;32.20;99.90;;;;;;5052628;28;20411;-52
2022/07/29 07:38:10;;;;;;;8.68;5.20;;;32.10;99.90;;;;;;5051853;28;21096;-53
2022/07/29 07:40:46;;;;;;;10.33;5.03;;;33.20;99.90;;;;;;5052894;28;20389;-53
2022/07/29 07:43:22;;;;;;;10.35;7.20;;;34.40;99.90;;;;;;5050774;28;20394;-52
2022/07/29 07:45:57;;;;;;;8.70;5.35;;;35.70;99.90;;;;;;5049523;28;20397;-62
2022/07/29 07:48:28;;;;;;;11.27;7.20;;;36.00;99.90;;;;;;5049820;28;20413;-58
2022/07/29 07:51:02;;;;;;;8.85;7.20;;;35.80;99.90;;;;;;5049674;28;20464;-52
2022/07/29 07:53:29;;;;;;;9.27;5.68;;;35.60;99.90;;;;;;5048764;28;20887;-53
2022/07/29 07:56:00;;;;;;;9.68;7.40;;;35.30;99.90;;;;;;5051347;28;20437;-52
2022/07/29 07:58:26;;;;;;;12.73;7.72;;;33.60;99.90;;;;;;5052215;28;20378;-52
2022/07/29 08:00:54;;;;;;;9.50;6.70;;;32.00;99.90;;;;;;5050501;28;20404;-60
2022/07/29 08:03:26;;;;;;;10.13;6.05;;;30.80;99.90;;;;;;5050513;28;20401;-52
2022/07/29 08:05:57;;;;;;;10.40;5.90;;;30.60;99.90;;;;;;5048843;28;20384;-60
2022/07/29 08:08:22;;;;;;;11.07;5.70;;;31.50;99.90;;;;;;5049804;28;20902;-52
2022/07/29 08:11:09;;;;;;;12.47;6.67;;;31.80;99.90;;;;;;5051214;28;20381;-59
2022/07/29 08:13:40;;;;;;;10.23;7.10;;;31.60;99.90;;;;;;5051205;28;20415;-52
2022/07/29 08:16:14;;;;;;;10.30;6.60;;;31.00;99.90;;;;;;5050813;28;20386;-52
2022/07/29 08:18:43;;;;;;;10.18;6.30;;;30.50;99.90;;;;;;5051706;28;20389;-52
2022/07/29 08:21:09;;;;;;;11.30;7.25;;;30.80;99.90;;;;;;5048234;28;20385;-52
2022/07/29 08:26:10;;;;;;;8.93;6.70;;;32.10;99.90;;;;;;5050350;28;20417;-52
2022/07/29 08:28:38;;;;;;;12.32;7.60;;;33.30;99.90;;;;;;5051231;28;20496;-53
2022/07/29 08:31:13;;;;;;;9.40;6.45;;;34.60;99.90;;;;;;5049910;28;20463;-52
2022/07/29 08:33:38;;;;;;;10.50;6.30;;;35.80;99.90;;;;;;5050964;28;20386;-52
2022/07/29 08:36:06;;;;;;;9.32;7.32;;;37.00;99.90;;;;;;5051034;28;20404;-52
2022/07/29 08:38:32;;;;;;;10.50;5.75;;;37.50;99.90;;;;;;5050864;28;20822;-52
2022/07/29 08:40:58;;;;;;;8.32;6.68;;;38.30;99.90;;;;;;5050724;28;20913;-52
2022/07/29 08:43:24;;;;;;;8.90;4.95;;;38.30;99.90;;;;;;5051548;28;20377;-53
2022/07/29 08:45:51;;;;;;;9.07;7.53;;;38.70;99.90;;;;;;5051099;28;20894;-61
2022/07/29 08:48:19;;;;;;;10.07;5.43;;;39.30;99.90;;;;;;5051027;28;20450;-53
2022/07/29 08:50:46;;;;;;;10.80;5.60;;;39.80;99.90;;;;;;5051249;28;20787;-52
2022/07/29 08:53:13;;;;;;;9.60;5.80;;;39.80;99.90;;;;;;5041309;28;20947;-55
2022/07/29 08:55:51;;;;;;;9.63;6.10;;;38.90;99.90;;;;;;5051034;28;20389;-52
2022/07/29 08:58:19;;;;;;;10.83;6.30;;;38.90;99.90;;;;;;5050551;28;20437;-53
2022/07/29 09:01:06;;;;;;;10.00;5.40;;;39.80;99.90;;;;;;5051261;28;20373;-53
2022/07/29 09:03:43;;;;;;;9.90;6.10;;;39.80;99.90;;;;;;5050446;28;20393;-53
2022/07/29 09:06:17;;;;;;;8.70;5.82;;;40.40;99.90;;;;;;5046691;28;20487;-53
2022/07/29 09:08:45;;;;;;;9.73;7.05;;;39.70;99.90;;;;;;5044493;28;20409;-53
2022/07/29 09:11:19;;;;;;;11.30;9.88;;;38.30;99.90;;;;;;5047020;28;20390;-53
2022/07/29 09:13:49;;;;;;;11.02;9.82;;;36.60;99.90;;;;;;5050059;28;20393;-54
2022/07/29 09:16:17;;;;;;;11.80;9.20;;;37.20;99.90;;;;;;5049603;28;20889;-53
2022/07/29 09:18:49;;;;;;;10.43;9.32;;;37.80;99.90;;;;;;5050218;28;20411;-53
2022/07/29 09:24:12;;;;;;;11.88;9.75;;;37.90;99.90;;;;;;5046807;28;20369;-52
2022/07/29 09:26:43;;;;;;;11.35;9.10;;;37.00;99.90;;;;;;5044783;28;20405;-53
2022/07/29 09:29:14;;;;;;;10.57;9.10;;;36.90;99.90;;;;;;5037709;28;20433;-53
2022/07/29 09:31:48;;;;;;;15.35;9.00;;;37.00;99.90;;;;;;5040532;28;20823;-53
2022/07/29 09:34:16;;;;;;;10.55;8.60;;;36.70;99.90;;;;;;5039890;28;20402;-53
2022/07/29 09:36:51;;;;;;;10.55;9.45;;;35.10;99.90;;;;;;5040500;28;20417;-55
2022/07/29 09:39:26;;;;;;;12.13;9.00;;;34.30;99.90;;;;;;5039840;28;20392;-52
2022/07/29 09:41:58;;;;;;;12.85;9.20;;;34.60;99.90;;;;;;5039299;28;20952;-61
2022/07/29 09:44:32;;;;;;;10.40;9.40;;;37.20;99.90;;;;;;5037435;28;20395;-53
2022/07/29 09:47:08;;;;;;;11.45;10.25;;;37.20;99.90;;;;;;5037223;28;20387;-53
2022/07/29 09:49:54;;;;;;;14.23;10.20;;;36.20;99.90;;;;;;5038875;28;20393;-53
2022/07/29 09:52:20;;;;;;;12.43;10.10;;;36.30;99.90;;;;;;5043351;28;20902;-53
2022/07/29 09:54:46;;;;;;;10.65;9.40;;;35.80;99.90;;;;;;5040747;28;20468;-54
2022/07/29 09:57:23;;;;;;;12.45;8.95;;;35.90;99.90;;;;;;5038260;28;20439;-53
2022/07/29 09:59:57;;;;;;;11.85;8.80;;;35.80;99.90;;;;;;5038776;28;20441;-53
2022/07/29 10:02:28;;;;;;;13.27;8.38;;;36.10;99.90;;;;;;5038057;28;20414;-53
2022/07/29 10:04:53;;;;;;;10.52;8.93;;;37.50;99.90;;;;;;5037859;28;20469;-61
2022/07/29 10:07:19;;;;;;;10.67;8.70;;;38.10;99.90;;;;;;5039747;28;20870;-53
2022/07/29 10:09:56;;;;;;;12.80;8.32;;;37.80;99.90;;;;;;5037743;28;20932;-53
2022/07/29 10:12:23;;;;;;;12.00;9.60;;;36.80;99.90;;;;;;5037436;28;20427;-55
2022/07/29 10:14:50;;;;;;;12.43;9.38;;;35.10;99.90;;;;;;5039618;28;20383;-53
2022/07/29 10:17:17;;;;;;;13.95;10.45;;;33.40;99.90;;;;;;5037526;28;20424;-54
2022/07/29 10:19:42;;;;;;;9.45;8.45;;;32.10;99.90;;;;;;5039411;28;20793;-56
2022/07/29 10:22:10;;;;;;;12.23;10.38;;;32.20;99.90;;;;;;5037775;28;20541;-53
2022/07/29 10:24:37;;;;;;;14.60;11.23;;;32.60;99.90;;;;;;5041731;28;21365;-53
2022/07/29 10:27:04;;;;;;;10.40;9.18;;;32.60;99.90;;;;;;5044558;28;20401;-52
2022/07/29 10:29:33;;;;;;;12.48;11.18;;;32.20;99.90;;;;;;5047742;28;20404;-54
2022/07/29 10:32:23;;;;;;;11.75;10.55;;;31.20;99.90;;;;;;5048463;28;20471;-52
2022/07/29 10:35:11;;;;;;;13.43;10.90;;;31.20;99.90;;;;;;5044369;28;20440;-57
2022/07/29 10:38:15;;;;;;;12.82;10.48;;;30.40;99.90;;;;;;5046517;28;20747;-52
2022/07/29 10:43:47;;;;;;;15.43;10.80;;;29.90;99.90;;;;;;5048769;28;20902;-52
2022/07/29 10:46:14;;;;;;;11.85;10.38;;;29.60;99.90;;;;;;5048099;28;20382;-52
2022/07/29 10:49:11;;;;;;;14.48;11.00;;;29.30;99.90;;;;;;5048663;28;20409;-52
2022/07/29 10:51:59;;;;;;;13.73;10.40;;;29.10;99.90;;;;;;5046380;28;20444;-53
2022/07/29 10:54:47;;;;;;;11.90;10.00;;;28.70;99.90;;;;;;5047354;28;20385;-52
2022/07/29 10:57:13;;;;;;;11.70;10.50;;;28.80;99.90;;;;;;5049190;28;20421;-52
2022/07/29 10:59:40;;;;;;;12.70;9.10;;;28.50;99.90;;;;;;5052866;28;20390;-52
2022/07/29 11:02:34;;;;;;;11.07;8.75;;;28.40;99.90;;;;;;5049999;28;20488;-52
2022/07/29 11:05:05;;;;;;;13.50;8.20;;;28.40;99.90;;;;;;5049834;28;20423;-54
2022/07/29 11:07:34;;;;;;;9.43;8.20;;;28.40;99.90;;;;;;5052906;28;20409;-53
2022/07/29 11:10:15;;;;;;;14.98;8.65;;;28.30;99.90;;;;;;5047550;28;20401;-52
2022/07/29 11:12:43;;;;;;;10.77;8.70;;;28.40;99.90;;;;;;5052475;28;20595;-52
2022/07/29 11:15:21;;;;;;;12.68;8.57;;;28.30;99.90;;;;;;5050820;28;20405;-52
2022/07/29 11:18:00;;;;;;;11.65;8.52;;;28.40;99.90;;;;;;5051856;28;20384;-52
2022/07/29 11:20:45;;;;;;;11.35;8.73;;;28.40;99.90;;;;;;5051281;28;20421;-52
2022/07/29 11:23:28;;;;;;;10.30;8.20;;;28.60;99.90;;;;;;5051036;28;20497;-52
2022/07/29 11:26:09;;;;;;;11.23;8.45;;;28.60;99.90;;;;;;5049113;28;20409;-60
2022/07/29 11:28:39;;;;;;;10.63;8.10;;;28.70;99.90;;;;;;5048478;28;20409;-52
2022/07/29 11:31:07;;;;;;;12.67;8.60;;;28.90;99.90;;;;;;5049789;28;20455;-52
2022/07/29 11:33:33;;;;;;;11.93;8.50;;;29.30;99.90;;;;;;5052435;28;20385;-53
2022/07/29 11:36:13;;;;;;;11.85;9.30;;;29.60;99.90;;;;;;5051351;28;20447;-52
2022/07/29 11:38:39;;;;;;;11.30;9.70;;;29.70;99.90;;;;;;5051520;28;20500;-53
2022/07/29 11:41:21;;;;;;;13.50;9.50;;;29.70;99.90;;;;;;5051278;28;20392;-51
2022/07/29 11:43:52;;;;;;;11.38;8.20;;;29.50;99.90;;;;;;5052194;28;20862;-52
2022/07/29 11:46:48;;;;;;;10.05;8.10;;;29.00;99.90;;;;;;5052133;28;20374;-52
2022/07/29 11:49:23;;;;;;;12.23;8.40;;;28.50;99.90;;;;;;5049930;28;20405;-52
2022/07/29 11:51:57;;;;;;;11.77;8.90;;;28.30;99.90;;;;;;5049557;28;20401;-51
2022/07/29 11:54:31;;;;;;;10.68;8.98;;;28.20;99.90;;;;;;5047913;28;20463;-53
2022/07/29 11:56:58;;;;;;;11.87;8.33;;;28.30;99.90;;;;;;5049292;28;20409;-53
2022/07/29 11:59:24;;;;;;;11.30;8.13;;;28.40;99.90;;;;;;5050717;28;20405;-52
2022/07/29 12:01:57;;;;;;;12.10;7.03;;;28.50;99.90;;;;;;5050960;28;20388;-52
2022/07/29 12:04:24;;;;;;;10.10;6.43;;;28.60;99.90;;;;;;5052079;28;20409;-52
2022/07/29 12:06:56;;;;;;;10.90;6.80;;;28.60;99.90;;;;;;5050702;28;20427;-52
2022/07/29 12:09:23;;;;;;;10.55;6.63;;;28.60;99.90;;;;;;5052408;28;20395;-52
2022/07/29 12:11:55;;;;;;;10.88;7.13;;;28.90;99.90;;;;;;5052196;28;20491;-52
2022/07/29 12:14:32;;;;;;;14.07;7.00;;;28.40;99.90;;;;;;5051618;28;20595;-52
2022/07/29 12:16:59;;;;;;;11.50;6.37;;;28.00;99.90;;;;;;5051492;28;20469;-52
2022/07/29 12:19:26;;;;;;;9.77;6.40;;;27.90;99.90;;;;;;5052032;28;20385;-52
2022/07/29 12:21:59;;;;;;;10.93;6.75;;;27.90;99.90;;;;;;5052013;28;20382;-52
2022/07/29 12:24:25;;;;;;;10.70;7.07;;;28.10;99.90;;;;;;5052513;28;20381;-52
2022/07/29 12:26:55;;;;;;;11.77;6.40;;;28.00;99.90;;;;;;5051413;28;20414;-52
2022/07/29 12:29:22;;;;;;;16.17;8.18;;;28.00;99.90;;;;;;5051381;28;20400;-52
2022/07/29 12:31:53;;;;;;;12.13;7.30;;;27.80;99.90;;;;;;5051900;28;20743;-52
2022/07/29 12:34:22;;;;;;;13.02;6.95;;;27.80;99.90;;;;;;5051279;28;20795;-52
2022/07/29 12:36:49;;;;;;;10.43;6.30;;;27.90;99.90;;;;;;5051775;28;20439;-52
2022/07/29 12:39:16;;;;;;;10.27;6.90;;;27.90;99.90;;;;;;5050993;28;20385;-52
2022/07/29 12:41:43;;;;;;;12.77;7.97;;;27.90;99.90;;;;;;5051843;28;20389;-52
2022/07/29 12:44:10;;;;;;;11.27;8.07;;;27.90;99.90;;;;;;5050845;28;20382;-52
2022/07/29 12:46:36;;;;;;;11.55;8.48;;;28.30;99.90;;;;;;5051192;28;20731;-54
2022/07/29 12:49:02;;;;;;;12.88;7.78;;;28.30;99.90;;;;;;5050812;28;20401;-51
2022/07/29 12:51:33;;;;;;;11.45;7.95;;;28.30;99.90;;;;;;5051091;28;20373;-52
2022/07/29 12:54:17;;;;;;;12.07;7.60;;;28.10;99.90;;;;;;5050764;28;20393;-53
2022/07/29 12:56:44;;;;;;;12.80;8.00;;;27.90;99.90;;;;;;5051429;28;20777;-51
2022/07/29 12:59:21;;;;;;;11.00;7.77;;;27.40;99.90;;;;;;5050389;28;20737;-51
2022/07/29 13:01:50;;;;;;;10.35;7.18;;;27.10;99.90;;;;;;5051233;28;20778;-51
2022/07/29 13:04:26;;;;;;;16.20;7.80;;;26.90;99.90;;;;;;5050451;28;20461;-52
2022/07/29 13:07:00;;;;;;;14.23;7.60;;;26.90;99.90;;;;;;5050953;28;20456;-52
2022/07/29 13:09:37;;;;;;;11.45;7.28;;;26.90;99.90;;;;;;5051199;28;20495;-51